Time;durP1;ratioP1;P1;durP2;ratioP2;P2;SDS_P1;SDS_P2;PMS_P1;PMS_P2;Temp;Humidity;BMP_temperature;BMP_pressure;BME280_temperature;BME280_humidity;BME280_pressure;Samples;Min_cycle;Max_cycle;Signal;HPM_P1;HPM_P2
2022/03/23 00:01:09;;;;;;;17.55;9.63;;;;;;;2.77;83.43;102259.84;5264918;28;20027;-77
2022/03/23 00:03:40;;;;;;;18.65;9.82;;;;;;;2.67;83.72;102255.34;5284224;28;20035;-78
2022/03/23 00:06:13;;;;;;;19.42;10.32;;;;;;;2.53;85.30;102254.16;5283804;28;20032;-78
2022/03/23 00:08:44;;;;;;;22.35;9.40;;;;;;;2.86;83.15;102253.19;5283959;28;20496;-78
2022/03/23 00:11:15;;;;;;;14.10;8.75;;;;;;;3.01;81.73;102253.53;5283830;28;20039;-78
2022/03/23 00:13:46;;;;;;;17.13;9.00;;;;;;;2.44;83.47;102254.81;5287793;28;20028;-78
2022/03/23 00:16:16;;;;;;;16.65;9.55;;;;;;;2.35;85.62;102249.41;5287272;28;20030;-78
2022/03/23 00:18:46;;;;;;;16.67;9.27;;;;;;;2.16;85.52;102256.66;5287227;28;20032;-78
2022/03/23 00:21:17;;;;;;;20.35;9.73;;;;;;;2.33;85.02;102252.81;5287441;28;20074;-78
2022/03/23 00:23:47;;;;;;;20.00;10.80;;;;;;;2.32;85.81;102243.31;5287748;28;20077;-78
2022/03/23 00:26:18;;;;;;;16.63;9.43;;;;;;;2.54;85.38;102253.31;5286930;28;20437;-78
2022/03/23 00:28:48;;;;;;;15.40;9.40;;;;;;;2.51;83.58;102243.78;5287116;28;20076;-78
2022/03/23 00:31:20;;;;;;;19.25;10.05;;;;;;;2.36;85.00;102247.72;5287243;28;20492;-78
2022/03/23 00:33:51;;;;;;;17.65;9.88;;;;;;;2.59;82.37;102249.13;5287479;28;20028;-78
2022/03/23 00:36:22;;;;;;;17.30;9.93;;;;;;;2.67;82.70;102247.59;5286995;28;20035;-78
2022/03/23 00:38:53;;;;;;;17.05;9.50;;;;;;;2.48;82.74;102253.19;5287171;28;20028;-78
2022/03/23 00:41:23;;;;;;;17.92;9.65;;;;;;;2.12;86.29;102249.66;5286856;28;20034;-79
2022/03/23 00:43:54;;;;;;;17.88;10.02;;;;;;;1.97;88.64;102249.31;5286943;28;20102;-78
2022/03/23 00:46:24;;;;;;;21.02;10.02;;;;;;;1.98;87.82;102251.06;5286632;28;20042;-78
2022/03/23 00:48:54;;;;;;;18.35;10.18;;;;;;;2.10;88.69;102248.75;5286394;28;20476;-78
2022/03/23 00:51:25;;;;;;;18.08;10.15;;;;;;;2.36;86.46;102245.13;5286622;28;20107;-78
2022/03/23 00:53:55;;;;;;;17.80;9.63;;;;;;;2.45;85.45;102245.34;5286726;28;20024;-78
2022/03/23 00:56:25;;;;;;;21.55;10.13;;;;;;;2.23;85.42;102240.50;5286746;28;20030;-78
2022/03/23 00:58:55;;;;;;;17.05;9.50;;;;;;;2.02;87.20;102242.56;5287058;28;20040;-78
2022/03/23 01:01:29;;;;;;;19.38;10.10;;;;;;;2.02;86.25;102258.03;5268474;28;20108;-78
2022/03/23 01:03:59;;;;;;;18.77;10.40;;;;;;;1.94;88.03;102255.25;5268623;28;20504;-78
2022/03/23 01:06:29;;;;;;;17.42;10.25;;;;;;;1.94;86.35;102251.78;5286355;28;20054;-79
2022/03/23 01:08:59;;;;;;;20.80;10.75;;;;;;;1.64;88.57;102253.56;5285717;28;20824;-78
2022/03/23 01:11:30;;;;;;;19.75;10.82;;;;;;;1.68;88.41;102250.25;5285632;28;20098;-78
2022/03/23 01:14:00;;;;;;;19.08;10.20;;;;;;;1.98;86.38;102241.59;5267977;28;20073;-78
2022/03/23 01:16:30;;;;;;;18.95;11.02;;;;;;;1.92;86.10;102243.13;5286342;28;20104;-78
2022/03/23 01:19:01;;;;;;;17.50;9.95;;;;;;;1.63;87.60;102246.69;5285757;28;20027;-78
2022/03/23 01:21:31;;;;;;;16.10;9.88;;;;;;;1.66;87.37;102245.88;5286362;28;20054;-78
2022/03/23 01:24:02;;;;;;;21.02;9.88;;;;;;;1.40;89.80;102247.72;5285288;28;20108;-78
2022/03/23 01:26:33;;;;;;;20.10;10.10;;;;;;;1.44;90.17;102244.41;5267960;28;20180;-78
2022/03/23 01:29:03;;;;;;;22.65;9.93;;;;;;;1.25;90.48;102241.28;5282237;28;20444;-79
2022/03/23 01:31:34;;;;;;;19.33;10.10;;;;;;;1.24;92.72;102240.41;5267811;28;20024;-77
2022/03/23 01:34:04;;;;;;;20.17;10.57;;;;;;;1.42;89.38;102240.06;5271573;28;20040;-78
2022/03/23 01:36:34;;;;;;;19.13;10.38;;;;;;;1.35;91.14;102222.66;5285051;28;20694;-78
2022/03/23 01:39:05;;;;;;;18.30;10.10;;;;;;;1.28;90.05;102226.81;5267615;28;20062;-78
2022/03/23 01:41:40;;;;;;;16.27;9.60;;;;;;;1.27;90.27;102237.91;5286742;28;20384;-78
2022/03/23 01:44:19;;;;;;;21.10;10.82;;;;;;;1.55;89.43;102235.28;5286523;28;20389;-77
2022/03/23 01:47:01;;;;;;;17.17;10.23;;;;;;;1.71;87.42;102234.00;5285885;28;20036;-77
2022/03/23 01:49:39;;;;;;;19.85;9.85;;;;;;;1.44;87.59;102234.09;5286492;28;20035;-79
2022/03/23 01:52:12;;;;;;;22.67;10.60;;;;;;;1.51;87.79;102230.88;5282747;28;20028;-78
2022/03/23 01:54:44;;;;;;;19.60;10.13;;;;;;;1.29;88.65;102232.81;5268890;28;20020;-77
2022/03/23 01:57:16;;;;;;;17.23;9.57;;;;;;;1.12;89.63;102234.91;5267121;28;20063;-78
2022/03/23 01:59:46;;;;;;;19.67;10.07;;;;;;;1.17;91.06;102237.59;5267888;28;20040;-79
2022/03/23 02:02:17;;;;;;;16.98;10.02;;;;;;;1.31;88.96;102232.03;5286331;28;20111;-77
2022/03/23 02:04:47;;;;;;;19.40;9.70;;;;;;;1.27;89.70;102232.75;5268412;28;20019;-79
2022/03/23 02:07:18;;;;;;;19.88;9.95;;;;;;;1.28;89.64;102234.53;5266427;28;20031;-78
2022/03/23 02:09:48;;;;;;;17.45;9.82;;;;;;;1.26;90.25;102238.75;5284556;28;20028;-78
2022/03/23 02:12:18;;;;;;;17.60;9.55;;;;;;;1.13;90.38;102234.09;5285633;28;20043;-77
2022/03/23 02:14:49;;;;;;;19.80;10.40;;;;;;;1.21;90.50;102227.44;5285735;28;20028;-78
2022/03/23 02:17:19;;;;;;;20.65;10.13;;;;;;;1.25;89.48;102231.00;5248370;28;20028;-79
2022/03/23 02:19:49;;;;;;;17.15;10.07;;;;;;;1.19;89.91;102226.53;5286172;28;20015;-78
2022/03/23 02:22:19;;;;;;;19.60;10.55;;;;;;;1.24;89.05;102224.09;5285983;28;20035;-78
2022/03/23 02:24:50;;;;;;;20.00;10.85;;;;;;;1.43;88.33;102221.19;5267718;28;20052;-78
2022/03/23 02:27:20;;;;;;;18.25;10.35;;;;;;;1.56;87.32;102221.56;5285768;28;20397;-78
2022/03/23 02:29:53;;;;;;;17.65;9.88;;;;;;;1.62;85.41;102218.28;5285504;28;20034;-78
2022/03/23 02:32:24;;;;;;;17.15;9.63;;;;;;;1.41;86.51;102217.72;5266493;28;20061;-78
2022/03/23 02:34:54;;;;;;;20.02;10.13;;;;;;;1.24;87.42;102224.09;5267290;28;20080;-78
2022/03/23 02:37:25;;;;;;;19.67;10.43;;;;;;;1.20;88.47;102222.28;5285277;28;20114;-78
2022/03/23 02:39:55;;;;;;;19.67;10.98;;;;;;;1.07;89.05;102223.59;5284997;28;20034;-77
2022/03/23 02:42:26;;;;;;;19.40;10.65;;;;;;;0.91;90.21;102223.13;5284222;28;20023;-78
2022/03/23 02:44:56;;;;;;;18.25;9.80;;;;;;;1.00;90.12;102220.81;5266682;28;20072;-77
2022/03/23 02:47:26;;;;;;;17.83;10.13;;;;;;;1.18;89.92;102218.75;5265718;28;20634;-79
2022/03/23 02:49:57;;;;;;;17.40;8.98;;;;;;;1.08;88.51;102217.63;5287343;28;20024;-76
2022/03/23 02:52:28;;;;;;;17.20;9.98;;;;;;;1.22;89.17;102211.16;5291285;28;20038;-77
2022/03/23 03:04:12;;;;;;;17.27;9.27;;;;;;;1.06;88.78;102213.28;5175667;28;20038;-75
2022/03/23 03:06:42;;;;;;;16.85;9.20;;;;;;;0.93;88.79;102218.88;5172344;28;20051;-75
2022/03/23 03:09:14;;;;;;;17.23;9.45;;;;;;;0.83;89.40;102217.75;5237665;28;20038;-77
2022/03/23 03:11:45;;;;;;;17.20;9.75;;;;;;;0.68;91.21;102218.97;5290226;28;20477;-75
2022/03/23 03:14:15;;;;;;;20.42;10.40;;;;;;;0.64;91.33;102227.44;5290069;28;20055;-77
2022/03/23 03:16:45;;;;;;;19.38;10.65;;;;;;;0.47;92.22;102224.34;5290771;28;20070;-76
2022/03/23 03:19:16;;;;;;;18.88;10.50;;;;;;;0.34;93.22;102222.22;5289733;28;20055;-76
2022/03/23 03:21:46;;;;;;;18.23;10.40;;;;;;;0.48;93.44;102228.66;5289084;28;20511;-76
2022/03/23 03:24:16;;;;;;;16.75;9.95;;;;;;;0.83;91.86;102220.31;5289843;28;20396;-77
2022/03/23 03:26:47;;;;;;;19.23;10.60;;;;;;;1.06;89.71;102214.13;5270728;28;20083;-76
2022/03/23 03:29:17;;;;;;;18.05;10.00;;;;;;;1.00;88.39;102211.41;5289343;28;20034;-77
2022/03/23 03:31:47;;;;;;;17.92;10.35;;;;;;;0.99;86.72;102212.22;5289140;28;20051;-77
2022/03/23 03:34:18;;;;;;;17.05;9.52;;;;;;;0.98;87.16;102217.31;5289731;28;20127;-78
2022/03/23 03:36:48;;;;;;;15.60;9.05;;;;;;;0.85;86.76;102210.06;5290079;28;20064;-75
2022/03/23 03:39:18;;;;;;;16.45;9.13;;;;;;;0.95;87.02;102215.53;5288756;28;20050;-76
2022/03/23 03:41:48;;;;;;;18.27;9.85;;;;;;;0.95;86.97;102214.66;5288495;28;20035;-77
2022/03/23 03:44:19;;;;;;;15.07;9.32;;;;;;;0.76;88.82;102213.22;5271078;28;20079;-75
2022/03/23 03:46:49;;;;;;;17.27;9.93;;;;;;;0.66;89.38;102228.34;5290303;28;20023;-75
2022/03/23 03:49:20;;;;;;;18.45;9.85;;;;;;;0.62;91.85;102229.97;5293138;28;20030;-76
2022/03/23 03:51:50;;;;;;;17.95;9.77;;;;;;;0.53;93.37;102224.53;5292947;28;20035;-77
2022/03/23 03:54:20;;;;;;;18.52;9.85;;;;;;;0.67;90.13;102218.13;5292900;28;20103;-77
2022/03/23 03:56:50;;;;;;;20.23;10.07;;;;;;;0.60;90.35;102229.06;5273971;28;20034;-77
2022/03/23 03:59:21;;;;;;;20.58;9.23;;;;;;;0.73;89.33;102217.44;5291714;28;20032;-78
2022/03/23 04:01:51;;;;;;;20.48;10.05;;;;;;;0.66;89.58;102231.81;5292672;28;20035;-75
2022/03/23 04:04:21;;;;;;;17.73;9.77;;;;;;;0.71;87.80;102229.38;5292379;28;20027;-76
2022/03/23 04:06:51;;;;;;;22.27;10.20;;;;;;;0.55;88.26;102228.00;5290318;28;20024;-76
2022/03/23 04:09:22;;;;;;;18.75;10.05;;;;;;;0.50;90.60;102229.59;5291831;28;20031;-77
2022/03/23 04:11:52;;;;;;;16.63;9.73;;;;;;;0.50;90.51;102232.16;5291065;28;20027;-76
2022/03/23 04:14:22;;;;;;;20.60;9.65;;;;;;;0.53;90.53;102228.81;5291255;28;20040;-76
2022/03/23 04:16:53;;;;;;;17.08;9.77;;;;;;;0.52;90.14;102227.06;5290470;28;20015;-77
2022/03/23 04:19:23;;;;;;;18.10;9.98;;;;;;;0.57;89.67;102225.50;5290326;28;20035;-77
2022/03/23 04:21:54;;;;;;;16.83;9.98;;;;;;;0.55;88.72;102228.00;5290419;28;20023;-77
2022/03/23 04:24:25;;;;;;;22.02;9.77;;;;;;;0.18;91.07;102235.41;5291462;28;20020;-77
2022/03/23 04:26:55;;;;;;;19.35;10.25;;;;;;;0.35;91.37;102229.09;5271926;28;20026;-76
2022/03/23 04:29:26;;;;;;;16.70;10.07;;;;;;;0.37;89.84;102229.16;5290506;28;20058;-77
2022/03/23 04:31:56;;;;;;;17.52;9.77;;;;;;;0.28;90.07;102231.44;5290389;28;20024;-75
2022/03/23 04:34:27;;;;;;;18.95;9.90;;;;;;;0.30;90.87;102234.91;5290274;28;20024;-77
2022/03/23 04:36:57;;;;;;;18.70;9.93;;;;;;;0.49;89.91;102234.66;5290068;28;20098;-77
2022/03/23 04:39:27;;;;;;;16.67;9.88;;;;;;;0.33;90.52;102227.28;5290210;28;20427;-76
2022/03/23 04:41:58;;;;;;;22.95;10.68;;;;;;;0.04;91.43;102235.78;5289624;28;20110;-77
2022/03/23 04:44:28;;;;;;;20.00;10.95;;;;;;;0.09;92.78;102234.22;5290462;28;20019;-77
2022/03/23 04:46:58;;;;;;;21.10;10.80;;;;;;;0.19;92.77;102226.84;5288867;28;20015;-75
2022/03/23 04:49:29;;;;;;;20.35;11.00;;;;;;;0.02;91.91;102234.84;5289071;28;20027;-78
2022/03/23 04:51:59;;;;;;;20.27;11.02;;;;;;;0.06;93.72;102232.41;5288805;28;20027;-74
2022/03/23 04:54:29;;;;;;;19.02;10.25;;;;;;;0.17;92.57;102235.34;5288619;28;20032;-77
2022/03/23 04:56:59;;;;;;;20.30;10.60;;;;;;;0.31;90.80;102237.53;5286749;28;20427;-76
2022/03/23 04:59:30;;;;;;;19.83;11.02;;;;;;;0.34;89.76;102234.19;5286110;28;20023;-77
2022/03/23 05:02:00;;;;;;;17.88;9.40;;;;;;;0.42;89.08;102241.31;5287633;28;20064;-75
2022/03/23 05:04:31;;;;;;;23.05;10.63;;;;;;;0.34;88.36;102237.63;5288035;28;20024;-77
2022/03/23 05:07:01;;;;;;;17.40;9.95;;;;;;;0.22;88.94;102244.09;5287477;28;20853;-77
2022/03/23 05:09:31;;;;;;;19.35;9.95;;;;;;;0.21;88.47;102240.63;5287060;28;20040;-76
2022/03/23 05:12:02;;;;;;;17.83;9.70;;;;;;;0.25;89.11;102242.47;5286720;28;20031;-74
2022/03/23 05:14:32;;;;;;;18.73;10.13;;;;;;;0.19;89.57;102252.56;5288515;28;20031;-76
2022/03/23 05:17:03;;;;;;;20.13;10.65;;;;;;;0.10;89.41;102242.00;5272734;28;20035;-76
2022/03/23 05:19:35;;;;;;;18.67;9.85;;;;;;;0.19;90.38;102246.56;5291443;28;20032;-75
2022/03/23 05:22:05;;;;;;;15.90;9.68;;;;;;;0.30;89.54;102251.22;5284542;28;20047;-75
2022/03/23 05:24:35;;;;;;;18.85;10.30;;;;;;;0.37;89.49;102250.59;5288970;28;20111;-77
2022/03/23 05:27:08;;;;;;;18.85;10.80;;;;;;;0.18;89.83;102239.69;5288587;28;20023;-74
2022/03/23 05:29:39;;;;;;;21.80;10.55;;;;;;;0.10;91.72;102252.28;5288426;28;20084;-77
2022/03/23 05:32:16;;;;;;;17.98;10.40;;;;;;;0.08;92.44;102255.59;5288265;28;20184;-77
2022/03/23 05:34:48;;;;;;;21.13;11.50;;;;;;;0.42;89.75;102254.16;5288338;28;20026;-75
2022/03/23 05:37:18;;;;;;;19.50;10.07;;;;;;;0.57;89.01;102257.22;5287397;28;20106;-76
2022/03/23 05:39:49;;;;;;;17.20;10.38;;;;;;;0.62;87.92;102257.38;5287163;28;20030;-76
2022/03/23 05:42:19;;;;;;;18.80;10.35;;;;;;;0.74;87.55;102256.03;5286492;28;20028;-77
2022/03/23 05:44:49;;;;;;;18.35;10.00;;;;;;;0.59;87.53;102265.84;5286759;28;20643;-77
2022/03/23 05:47:21;;;;;;;16.88;10.32;;;;;;;0.58;87.54;102263.25;5286097;28;20092;-77
2022/03/23 05:49:51;;;;;;;20.60;10.48;;;;;;;0.50;88.46;102273.31;5285346;28;20024;-76
2022/03/23 05:52:22;;;;;;;20.48;10.52;;;;;;;0.25;90.72;102270.75;5268258;28;20023;-77
2022/03/23 05:54:52;;;;;;;20.08;11.15;;;;;;;0.17;93.55;102274.78;5286655;28;20709;-78
2022/03/23 05:57:23;;;;;;;19.75;10.68;;;;;;;0.70;89.71;102272.22;5268662;28;20083;-77
2022/03/23 05:59:53;;;;;;;21.63;10.50;;;;;;;0.64;88.44;102274.63;5268368;28;20027;-77
2022/03/23 06:02:23;;;;;;;18.50;9.50;;;;;;;0.67;89.36;102267.00;5266240;28;20074;-78
2022/03/23 06:04:53;;;;;;;16.90;10.00;;;;;;;0.61;90.33;102277.09;5287368;28;20056;-77
2022/03/23 06:07:24;;;;;;;19.83;10.52;;;;;;;0.65;90.40;102276.38;5288205;28;20039;-77
2022/03/23 06:09:54;;;;;;;20.27;11.13;;;;;;;0.63;89.59;102272.88;5268950;28;20019;-77
2022/03/23 06:12:28;;;;;;;18.67;10.93;;;;;;;0.65;91.08;102270.31;5270439;28;20033;-77
2022/03/23 06:14:59;;;;;;;19.67;10.20;;;;;;;0.61;90.17;102277.09;5269590;28;20040;-77
2022/03/23 06:17:29;;;;;;;21.88;11.23;;;;;;;0.36;92.77;102278.84;5270333;28;20539;-77
2022/03/23 06:20:00;;;;;;;18.73;10.35;;;;;;;0.51;93.06;102277.63;5288560;28;20027;-77
2022/03/23 06:22:30;;;;;;;20.75;10.07;;;;;;;0.52;94.21;102283.66;5288498;28;20072;-77
2022/03/23 06:25:01;;;;;;;19.17;10.88;;;;;;;0.43;93.67;102281.66;5287409;28;20023;-77
2022/03/23 06:27:31;;;;;;;19.63;11.07;;;;;;;0.37;95.76;102284.00;5270104;28;20042;-77
2022/03/23 06:30:03;;;;;;;17.90;10.80;;;;;;;0.68;95.53;102285.84;5288920;28;20389;-77
2022/03/23 06:32:33;;;;;;;20.77;11.57;;;;;;;0.86;95.08;102286.44;5287167;28;20023;-77
2022/03/23 06:35:04;;;;;;;19.80;10.75;;;;;;;0.91;94.45;102296.03;5288262;28;20058;-78
2022/03/23 06:37:35;;;;;;;19.45;11.40;;;;;;;1.08;94.39;102289.69;5283782;28;20047;-77
2022/03/23 06:40:06;;;;;;;23.63;12.43;;;;;;;0.66;96.55;102292.66;5287939;28;20489;-77
2022/03/23 06:42:37;;;;;;;24.13;12.70;;;;;;;0.72;99.18;102293.72;5266727;28;20389;-77
2022/03/23 06:45:07;;;;;;;23.15;12.65;;;;;;;0.76;100.00;102289.56;5287159;28;20024;-78
2022/03/23 06:47:38;;;;;;;21.88;12.27;;;;;;;0.94;100.00;102283.28;5286113;28;20050;-77
2022/03/23 06:50:08;;;;;;;25.42;13.10;;;;;;;1.02;100.00;102281.81;5268162;28;20147;-78
2022/03/23 06:52:39;;;;;;;22.90;12.30;;;;;;;1.09;99.44;102286.28;5286517;28;20030;-77
2022/03/23 06:55:09;;;;;;;25.83;13.40;;;;;;;1.44;100.00;102277.88;5287181;28;20081;-77
2022/03/23 06:57:40;;;;;;;23.35;13.75;;;;;;;1.60;98.45;102285.22;5287414;28;20036;-77
2022/03/23 07:00:13;;;;;;;21.60;12.98;;;;;;;1.78;97.18;102283.13;5287587;28;20027;-77
2022/03/23 07:02:47;;;;;;;26.00;14.07;;;;;;;2.02;97.82;102270.91;5287763;28;20019;-77
2022/03/23 07:05:18;;;;;;;24.27;13.15;;;;;;;2.22;94.19;102272.28;5288701;28;20031;-77
2022/03/23 07:10:38;;;;;;;21.55;12.73;;;;;;;2.46;94.53;102275.44;5287178;28;20412;-77
2022/03/23 07:13:08;;;;;;;24.75;13.70;;;;;;;2.74;93.70;102280.44;5287032;28;20114;-77
2022/03/23 07:15:38;;;;;;;23.02;12.52;;;;;;;2.97;93.67;102269.81;5268952;28;20028;-77
2022/03/23 07:18:10;;;;;;;23.92;13.05;;;;;;;3.14;91.39;102272.75;5287126;28;20481;-77
2022/03/23 07:20:40;;;;;;;23.83;13.32;;;;;;;3.20;89.68;102278.06;5287490;28;20063;-77
2022/03/23 07:23:11;;;;;;;21.77;12.93;;;;;;;3.93;91.73;102271.78;5290338;28;20023;-77
2022/03/23 07:25:41;;;;;;;20.67;12.48;;;;;;;5.82;80.68;102262.50;5273238;28;20508;-77
2022/03/23 07:28:11;;;;;;;21.45;12.30;;;;;;;7.87;75.81;102258.69;5272210;28;20126;-78
2022/03/23 07:30:42;;;;;;;19.50;11.40;;;;;;;9.16;69.04;102249.94;5272048;28;20103;-77
2022/03/23 07:33:12;;;;;;;16.85;10.57;;;;;;;10.90;59.92;102242.72;5274574;28;20031;-78
2022/03/23 07:35:42;;;;;;;16.20;10.15;;;;;;;12.07;60.08;102245.59;5293029;28;20104;-77
2022/03/23 07:38:13;;;;;;;15.98;9.82;;;;;;;13.75;57.02;102234.59;5290944;28;20509;-78
2022/03/23 07:40:44;;;;;;;15.77;10.30;;;;;;;11.53;61.62;102242.84;5291406;28;20027;-78
2022/03/23 07:43:14;;;;;;;13.93;9.65;;;;;;;13.59;57.13;102239.28;5274214;28;20058;-78
2022/03/23 07:45:46;;;;;;;12.65;9.75;;;;;;;15.94;51.31;102233.09;5293298;28;20028;-78
2022/03/23 07:48:17;;;;;;;14.63;9.70;;;;;;;16.03;50.09;102219.59;5292757;28;20039;-78
2022/03/23 07:50:47;;;;;;;14.38;10.20;;;;;;;15.22;50.54;102237.00;5292498;28;20388;-78
2022/03/23 07:53:18;;;;;;;14.47;9.93;;;;;;;17.33;48.86;102222.97;5291110;28;20030;-79
2022/03/23 07:55:48;;;;;;;14.13;9.63;;;;;;;16.32;51.26;102232.72;5291496;28;20643;-79
2022/03/23 07:58:18;;;;;;;16.95;10.15;;;;;;;16.48;49.54;102230.44;5273213;28;20110;-78
2022/03/23 08:00:49;;;;;;;14.53;10.53;;;;;;;15.57;51.88;102232.44;5291889;28;20026;-79
2022/03/23 08:03:19;;;;;;;14.10;9.80;;;;;;;16.36;52.06;102223.81;5292595;28;20261;-79
2022/03/23 08:05:49;;;;;;;13.57;9.57;;;;;;;17.61;48.00;102220.16;5273410;28;20031;-78
2022/03/23 08:08:20;;;;;;;13.77;10.27;;;;;;;14.87;52.65;102235.31;5290660;28;20269;-78
2022/03/23 08:10:50;;;;;;;14.43;10.80;;;;;;;17.44;48.29;102219.94;5291732;28;20099;-78
2022/03/23 08:13:21;;;;;;;14.15;10.63;;;;;;;16.40;49.19;102233.34;5291680;28;20020;-78
2022/03/23 08:15:52;;;;;;;17.58;11.90;;;;;;;18.64;44.54;102220.38;5295231;28;20043;-79
2022/03/23 08:18:22;;;;;;;14.95;11.13;;;;;;;17.71;45.73;102226.84;5274930;28;20035;-78
2022/03/23 08:20:53;;;;;;;17.13;10.98;;;;;;;17.91;44.50;102221.63;5294506;28;20031;-79
2022/03/23 08:23:25;;;;;;;17.02;11.45;;;;;;;19.99;42.58;102215.88;5273580;28;20075;-78
2022/03/23 08:25:56;;;;;;;20.00;11.43;;;;;;;21.03;42.06;102219.47;5292544;28;20568;-78
2022/03/23 08:28:26;;;;;;;16.65;11.38;;;;;;;19.99;41.79;102223.84;5291793;28;20153;-78
2022/03/23 08:30:57;;;;;;;16.10;12.20;;;;;;;20.85;40.59;102215.97;5290320;28;20034;-78
2022/03/23 08:33:32;;;;;;;15.77;11.85;;;;;;;19.28;41.09;102231.63;5272318;28;20820;-78
2022/03/23 08:36:05;;;;;;;16.27;11.43;;;;;;;20.24;40.57;102219.09;5271479;28;20104;-78
2022/03/23 08:38:36;;;;;;;16.52;12.30;;;;;;;19.16;42.49;102218.97;5267494;28;20019;-78
2022/03/23 08:41:07;;;;;;;19.42;11.65;;;;;;;20.17;41.39;102217.69;5288717;28;20645;-78
2022/03/23 08:43:38;;;;;;;17.08;11.77;;;;;;;19.75;40.75;102218.88;5289536;28;20034;-78
2022/03/23 08:46:08;;;;;;;17.77;11.70;;;;;;;21.47;38.90;102201.97;5271326;28;20059;-78
2022/03/23 08:48:39;;;;;;;19.48;11.68;;;;;;;19.53;41.44;102205.72;5289126;28;20483;-78
2022/03/23 08:51:09;;;;;;;17.88;10.80;;;;;;;21.60;38.65;102200.38;5288310;28;20481;-79
2022/03/23 08:53:42;;;;;;;16.23;11.10;;;;;;;21.09;38.65;102211.16;5288347;28;20080;-78
2022/03/23 08:56:13;;;;;;;14.98;11.00;;;;;;;21.82;38.23;102203.56;5287623;28;20035;-79
2022/03/23 08:58:47;;;;;;;18.50;11.48;;;;;;;20.90;38.41;102213.06;5288136;28;20024;-78
2022/03/23 09:01:17;;;;;;;19.05;10.73;;;;;;;22.94;36.47;102196.88;5287598;28;20096;-78
2022/03/23 09:03:49;;;;;;;15.50;11.43;;;;;;;22.03;37.29;102205.03;5287745;28;20442;-79
2022/03/23 09:06:20;;;;;;;18.85;12.18;;;;;;;20.66;38.64;102211.63;5287262;28;20277;-78
2022/03/23 09:08:50;;;;;;;15.83;11.00;;;;;;;19.67;39.59;102211.25;5287325;28;20108;-79
2022/03/23 09:11:22;;;;;;;17.03;11.57;;;;;;;22.01;38.69;102197.13;5287352;28;20052;-78
2022/03/23 09:13:53;;;;;;;17.33;11.05;;;;;;;20.64;38.82;102204.69;5268994;28;20389;-78
2022/03/23 09:16:23;;;;;;;15.70;11.90;;;;;;;21.62;37.53;102198.47;5287045;28;20034;-78
2022/03/23 09:18:54;;;;;;;15.07;11.52;;;;;;;22.30;36.82;102196.31;5287592;28;20024;-78
2022/03/23 09:21:24;;;;;;;15.63;11.70;;;;;;;22.01;37.26;102197.13;5287248;28;21129;-78
2022/03/23 09:23:55;;;;;;;18.17;12.03;;;;;;;21.36;38.25;102193.72;5286858;28;20110;-78
2022/03/23 09:26:25;;;;;;;17.15;11.93;;;;;;;17.98;41.13;102212.56;5286760;28;20270;-78
2022/03/23 09:28:56;;;;;;;17.65;12.55;;;;;;;17.30;42.19;102219.59;5285985;28;20035;-79
2022/03/23 09:31:26;;;;;;;17.40;12.55;;;;;;;17.31;42.71;102208.09;5285627;28;20182;-78
2022/03/23 09:33:56;;;;;;;17.67;12.13;;;;;;;17.04;43.38;102211.72;5285898;28;20027;-78
2022/03/23 09:39:15;;;;;;;18.33;12.20;;;;;;;16.36;44.19;102209.78;5281434;28;20031;-78
2022/03/23 09:41:47;;;;;;;18.30;12.70;;;;;;;15.89;43.94;102211.25;5285384;28;20030;-78
2022/03/23 09:44:17;;;;;;;22.42;13.15;;;;;;;15.85;46.08;102206.97;5267071;28;20497;-78
2022/03/23 09:46:47;;;;;;;19.15;12.48;;;;;;;16.08;44.95;102204.47;5285932;28;20058;-78
2022/03/23 09:49:18;;;;;;;21.00;13.20;;;;;;;15.84;46.22;102207.91;5266857;28;20034;-78
2022/03/23 09:51:53;;;;;;;19.27;12.90;;;;;;;15.91;46.07;102203.28;5284253;28;20285;-78
2022/03/23 09:54:23;;;;;;;19.83;12.65;;;;;;;16.06;45.00;102205.44;5284582;28;20035;-78
2022/03/23 09:56:54;;;;;;;20.02;12.75;;;;;;;15.92;45.29;102205.03;5284887;28;20023;-78
2022/03/23 09:59:24;;;;;;;18.42;12.88;;;;;;;16.02;46.10;102203.81;5284871;28;20074;-78
2022/03/23 10:02:00;;;;;;;22.42;14.07;;;;;;;16.15;45.00;102205.13;5284328;28;20035;-78
2022/03/23 10:04:48;;;;;;;20.90;13.07;;;;;;;15.70;46.71;102210.09;5285523;28;20028;-78
2022/03/23 10:08:08;;;;;;;18.15;12.27;;;;;;;16.07;44.68;102201.91;5283033;28;20046;-78
2022/03/23 10:11:23;;;;;;;20.98;12.70;;;;;;;16.19;43.68;102198.88;5233463;28;20034;-78
2022/03/23 10:14:31;;;;;;;18.35;11.60;;;;;;;15.65;43.83;102198.81;5264665;28;20301;-78
2022/03/23 10:17:29;;;;;;;19.00;11.52;;;;;;;15.76;43.68;102191.47;5283575;28;20028;-78
2022/03/23 10:20:00;;;;;;;18.77;12.77;;;;;;;15.46;43.01;102200.28;5283451;28;20062;-78
2022/03/23 10:22:31;;;;;;;21.67;12.85;;;;;;;15.44;43.85;102194.22;5283077;28;20020;-78
2022/03/23 10:25:09;;;;;;;19.25;13.10;;;;;;;15.55;45.04;102192.09;5284121;28;20019;-78
2022/03/23 10:27:39;;;;;;;18.45;12.70;;;;;;;15.63;44.91;102192.75;5280556;28;20027;-78
2022/03/23 10:30:10;;;;;;;17.77;12.15;;;;;;;15.75;43.96;102196.78;5284270;28;20031;-78
2022/03/23 10:32:44;;;;;;;23.17;12.13;;;;;;;15.72;45.13;102191.59;5264866;28;20052;-78
2022/03/23 10:35:16;;;;;;;18.17;12.43;;;;;;;15.77;45.17;102194.94;5283276;28;20078;-77
2022/03/23 10:37:48;;;;;;;18.52;12.30;;;;;;;15.74;44.87;102195.88;5263195;28;20065;-77
2022/03/23 10:40:18;;;;;;;21.73;13.00;;;;;;;15.74;46.55;102202.94;5281858;28;20024;-77
2022/03/23 10:42:50;;;;;;;23.58;13.57;;;;;;;15.74;47.01;102189.78;5265751;28;20076;-77
2022/03/23 10:45:21;;;;;;;18.55;12.88;;;;;;;15.61;47.29;102188.41;5283359;28;20039;-78
2022/03/23 10:47:51;;;;;;;19.17;12.75;;;;;;;15.73;47.23;102191.53;5283387;28;20034;-78
2022/03/23 10:50:23;;;;;;;19.20;13.32;;;;;;;15.67;47.16;102186.47;5282987;28;20075;-78
2022/03/23 10:52:59;;;;;;;19.05;12.43;;;;;;;15.63;46.75;102187.47;5282642;28;20031;-78
2022/03/23 10:55:35;;;;;;;20.17;12.75;;;;;;;15.59;47.68;102185.84;5283364;28;20430;-78
2022/03/23 10:58:05;;;;;;;;;;;;;;;15.64;47.85;102183.91;5284011;28;20050;-78
2022/03/23 11:00:41;;;;;;;20.73;13.70;;;;;;;15.61;48.04;102178.75;5282949;28;20077;-78
2022/03/23 11:03:11;;;;;;;;;;;;;;;15.53;47.38;102174.63;5283475;28;20309;-78
2022/03/23 11:05:47;;;;;;;20.90;12.57;;;;;;;15.54;47.15;102177.19;5264742;28;19961;-78
2022/03/23 11:08:22;;;;;;;21.20;13.50;;;;;;;15.62;45.80;102180.47;5283636;28;20061;-78
2022/03/23 11:16:45;;;;;;;23.15;13.35;;;;;;;15.67;46.72;102168.00;5279950;28;20046;-78
2022/03/23 11:19:18;;;;;;;;;;;;;;;15.58;46.15;102170.94;5265347;28;20031;-78
2022/03/23 11:22:01;;;;;;;17.88;12.60;;;;;;;15.67;46.30;102169.78;5281213;28;19918;-78
2022/03/23 11:24:36;;;;;;;23.63;13.88;;;;;;;15.71;45.42;102159.09;5283022;28;20020;-78
2022/03/23 11:27:09;;;;;;;20.27;12.82;;;;;;;15.84;46.58;102157.78;5278324;28;20023;-78
2022/03/23 11:29:39;;;;;;;21.65;13.30;;;;;;;15.88;46.76;102161.19;5283135;28;20059;-78
2022/03/23 11:32:24;;;;;;;18.58;12.70;;;;;;;15.72;44.49;102158.16;5265240;28;20054;-78
2022/03/23 11:34:56;;;;;;;15.88;11.55;;;;;;;15.80;43.14;102157.94;5283513;28;20395;-78
2022/03/23 11:37:29;;;;;;;19.05;12.25;;;;;;;15.97;45.00;102151.22;5283609;28;20088;-78
2022/03/23 11:40:00;;;;;;;21.95;13.38;;;;;;;16.16;45.33;102154.97;5263900;28;20119;-78
2022/03/23 11:42:31;;;;;;;19.33;11.52;;;;;;;16.01;42.77;102152.84;5282998;28;20114;-78
2022/03/23 11:45:02;;;;;;;18.95;11.77;;;;;;;15.80;41.31;102148.25;5283218;28;20026;-77
2022/03/23 11:47:42;;;;;;;19.60;12.35;;;;;;;15.92;42.75;102147.00;5283221;28;20099;-77
2022/03/23 11:50:21;;;;;;;19.67;12.77;;;;;;;15.82;42.40;102146.44;5279330;28;20023;-78
2022/03/23 11:53:06;;;;;;;17.27;11.32;;;;;;;15.72;39.98;102138.88;5281103;28;20031;-78
2022/03/23 11:55:48;;;;;;;15.90;10.93;;;;;;;16.08;39.05;102143.78;5260820;28;20024;-78
2022/03/23 11:58:23;;;;;;;14.48;10.07;;;;;;;16.09;38.70;102142.91;5281677;28;20099;-78